KWWD/WWD METAR and TAF weather

Enter ICAO airport designator
Station Type Date Time Source
KWWD METAR 2020/03/31 05:56 UTC NOAA

KWWD 310556Z AUTO 00000KT 10SM BKN013 07/06 A2997 RMK AO2 SLP152 T00720061 10078 20072 58005


Station Type Date Time Source
KWWD Decoded METAR 2020/03/31 05:56 UTC NOAA

Wildwood, Cape May County Airport, NJ, United States (KWWD) 39-01N 074-55W
Mar 31, 2020 - 01:56 AM EDT / 2020.03.31 0556 UTC
Wind: Calm:0
Visibility: 10 mile(s):0
Sky conditions: mostly cloudy
Temperature: 45.0 F (7.2 C)
Dew Point: 43.0 F (6.1 C)
Relative Humidity: 92%
Pressure (altimeter): 29.97 in. Hg (1014 hPa)
Pressure tendency: 0.01 inches (0.5 hPa) lower than three hours ago
ob: KWWD 310556Z AUTO 00000KT 10SM BKN013 07/06 A2997 RMK AO2 SLP152 T00720061 10078 20072 58005
cycle: 6

Station Type Date Time Source
KWWD TAF UTC NOAA

Error!

Example: see airport list